Time;durP1;ratioP1;P1;durP2;ratioP2;P2;SDS_P1;SDS_P2;PMS_P1;PMS_P2;Temp;Humidity;BMP_temperature;BMP_pressure;BME280_temperature;BME280_humidity;BME280_pressure;Samples;Min_cycle;Max_cycle;Signal;HPM_P1;HPM_P2
2023/09/19 00:01:20;;;;;;;4.05;1.40;;;18.60;88.30;;;;;;4963943;28;20038;-61
2023/09/19 00:03:46;;;;;;;2.00;1.70;;;18.50;88.50;;;;;;4964455;28;20081;-62
2023/09/19 00:06:15;;;;;;;4.00;1.50;;;18.40;88.70;;;;;;4972839;28;20039;-62
2023/09/19 00:08:44;;;;;;;2.05;1.33;;;18.40;88.90;;;;;;4949196;28;20455;-62
2023/09/19 00:11:10;;;;;;;2.55;1.50;;;18.40;89.20;;;;;;4956364;28;20414;-62
2023/09/19 00:13:36;;;;;;;2.53;1.42;;;18.40;89.30;;;;;;4971867;28;20039;-62
2023/09/19 00:16:11;;;;;;;1.67;1.30;;;18.40;89.30;;;;;;4956504;28;20034;-62
2023/09/19 00:18:37;;;;;;;;;;;18.40;89.50;;;;;;4954397;28;20031;-62
2023/09/19 00:21:04;;;;;;;2.13;1.35;;;18.50;89.50;;;;;;4968945;28;19936;-62
2023/09/19 00:23:33;;;;;;;1.90;1.13;;;18.50;88.80;;;;;;4965760;28;20045;-62
2023/09/19 00:26:00;;;;;;;1.75;1.60;;;18.50;88.80;;;;;;4968991;28;20027;-62
2023/09/19 00:28:26;;;;;;;2.88;1.58;;;18.50;88.80;;;;;;4964956;28;20129;-61
2023/09/19 00:30:54;;;;;;;2.80;1.40;;;18.50;88.70;;;;;;4973576;28;20374;-62
2023/09/19 00:33:22;;;;;;;4.28;1.42;;;18.50;88.80;;;;;;4972281;28;20038;-62
2023/09/19 00:35:49;;;;;;;2.40;1.40;;;18.50;88.70;;;;;;4973428;28;20046;-62
2023/09/19 00:38:21;;;;;;;1.73;1.50;;;18.50;88.80;;;;;;4972335;28;20045;-62
2023/09/19 00:40:47;;;;;;;3.03;1.40;;;18.40;88.60;;;;;;4974115;28;20114;-62
2023/09/19 00:43:13;;;;;;;1.98;1.30;;;18.50;88.60;;;;;;4973586;28;20502;-62
2023/09/19 00:45:43;;;;;;;1.17;1.05;;;18.40;88.50;;;;;;4972594;28;20049;-62
2023/09/19 00:48:09;;;;;;;2.80;1.20;;;18.40;88.60;;;;;;4956656;28;20047;-62
2023/09/19 00:50:36;;;;;;;2.08;1.20;;;18.40;88.50;;;;;;4970737;28;20403;-62
2023/09/19 00:53:08;;;;;;;2.80;1.20;;;18.40;88.50;;;;;;4951940;28;21634;-62
2023/09/19 00:55:36;;;;;;;1.70;1.17;;;18.40;88.50;;;;;;4963283;28;20089;-62
2023/09/19 00:58:07;;;;;;;1.98;1.40;;;18.40;88.60;;;;;;4972857;28;20046;-63
2023/09/19 01:00:35;;;;;;;3.28;1.35;;;18.30;88.60;;;;;;4953920;28;20263;-62
2023/09/19 01:03:01;;;;;;;1.95;1.55;;;18.30;88.50;;;;;;4951805;28;20051;-62
2023/09/19 01:05:28;;;;;;;3.25;1.55;;;18.30;88.60;;;;;;4971519;28;20046;-62
2023/09/19 01:07:53;;;;;;;2.70;1.25;;;18.20;88.50;;;;;;4966830;28;20578;-62
2023/09/19 01:10:20;;;;;;;2.65;1.40;;;18.20;88.60;;;;;;4972364;28;20124;-62
2023/09/19 01:13:05;;;;;;;2.25;1.23;;;18.20;88.60;;;;;;4971879;28;20133;-61
2023/09/19 01:15:42;;;;;;;4.15;1.75;;;18.20;89.70;;;;;;4958585;28;20134;-62
2023/09/19 01:18:35;;;;;;;3.63;1.40;;;18.20;88.90;;;;;;4953235;28;20039;-62
2023/09/19 01:21:28;;;;;;;2.67;1.45;;;18.10;89.20;;;;;;4974369;28;20043;-62
2023/09/19 01:24:24;;;;;;;2.22;1.30;;;18.10;89.20;;;;;;4972383;28;20034;-62
2023/09/19 01:27:15;;;;;;;4.75;1.50;;;18.10;89.20;;;;;;4955670;28;20076;-61
2023/09/19 01:29:49;;;;;;;1.90;1.20;;;18.10;89.30;;;;;;4952775;28;20062;-62
2023/09/19 01:32:24;;;;;;;2.72;1.20;;;18.10;89.20;;;;;;4966774;28;20039;-62
2023/09/19 01:34:58;;;;;;;1.90;1.30;;;18.10;89.10;;;;;;4964896;28;21011;-62
2023/09/19 01:37:25;;;;;;;4.20;1.38;;;18.10;89.30;;;;;;4945588;28;20047;-62
2023/09/19 01:40:20;;;;;;;2.75;1.17;;;18.10;89.20;;;;;;4961888;28;20038;-62
2023/09/19 01:42:59;;;;;;;5.25;1.30;;;18.10;89.40;;;;;;4973718;28;20453;-62
2023/09/19 01:45:44;;;;;;;2.63;1.10;;;18.10;89.40;;;;;;4969909;28;20027;-62
2023/09/19 01:48:57;;;;;;;1.20;1.10;;;18.10;89.20;;;;;;4972327;28;20190;-62
2023/09/19 01:51:37;;;;;;;1.63;1.33;;;18.10;89.50;;;;;;4968829;28;20038;-62
2023/09/19 01:54:08;;;;;;;2.33;1.30;;;18.10;89.30;;;;;;4968417;28;20108;-63
2023/09/19 01:56:51;;;;;;;2.45;1.10;;;18.10;89.20;;;;;;4970060;28;20096;-62
2023/09/19 01:59:24;;;;;;;1.70;1.30;;;18.10;89.30;;;;;;4970392;28;20042;-62
2023/09/19 02:01:53;;;;;;;3.22;1.05;;;18.10;89.20;;;;;;4971431;28;20081;-62
2023/09/19 02:04:18;;;;;;;2.17;1.48;;;18.10;89.20;;;;;;4975392;28;20069;-62
2023/09/19 02:06:47;;;;;;;2.65;1.13;;;18.10;89.00;;;;;;4973151;28;20074;-62
2023/09/19 02:09:14;;;;;;;1.95;1.23;;;18.10;89.00;;;;;;4974401;28;20047;-62
2023/09/19 02:11:40;;;;;;;4.40;1.35;;;18.20;89.00;;;;;;4970746;28;20097;-62
2023/09/19 02:14:08;;;;;;;2.20;1.10;;;18.10;88.90;;;;;;4970723;28;20078;-62
2023/09/19 02:16:34;;;;;;;2.53;1.05;;;18.20;89.00;;;;;;4970604;28;20038;-62
2023/09/19 02:19:00;;;;;;;3.70;1.48;;;18.20;89.00;;;;;;4971169;28;20390;-62
2023/09/19 02:21:29;;;;;;;4.00;1.30;;;18.20;88.90;;;;;;4972964;28;20035;-62
2023/09/19 02:23:55;;;;;;;3.38;1.25;;;18.20;88.80;;;;;;4974728;28;20569;-62
2023/09/19 02:26:23;;;;;;;3.38;1.23;;;18.20;88.80;;;;;;4968288;28;20035;-62
2023/09/19 02:28:49;;;;;;;1.10;1.00;;;18.20;88.70;;;;;;4971544;28;20124;-62
2023/09/19 02:31:16;;;;;;;2.58;1.17;;;18.20;88.70;;;;;;4968765;28;20423;-62
2023/09/19 02:33:42;;;;;;;2.92;1.30;;;18.20;88.60;;;;;;4970599;28;20049;-62
2023/09/19 02:36:08;;;;;;;1.20;1.00;;;18.20;88.60;;;;;;4970171;28;20499;-62
2023/09/19 02:38:34;;;;;;;1.42;0.93;;;18.20;88.60;;;;;;4970256;28;20606;-62
2023/09/19 02:40:59;;;;;;;1.60;1.20;;;18.20;88.60;;;;;;4973160;28;20118;-61
2023/09/19 02:43:25;;;;;;;1.45;1.00;;;18.20;88.60;;;;;;4968757;28;20251;-62
2023/09/19 02:45:53;;;;;;;3.13;1.08;;;18.20;88.60;;;;;;4972136;28;20121;-62
2023/09/19 02:48:19;;;;;;;1.25;1.15;;;18.20;88.60;;;;;;4969215;28;20039;-62
2023/09/19 02:50:45;;;;;;;2.25;0.90;;;18.20;88.60;;;;;;4971706;28;20332;-62
2023/09/19 02:53:13;;;;;;;3.63;0.95;;;18.30;88.60;;;;;;4969138;28;20046;-62
2023/09/19 02:55:42;;;;;;;3.88;1.10;;;18.20;88.50;;;;;;4969491;28;20053;-62
2023/09/19 02:58:10;;;;;;;1.38;0.93;;;18.20;88.70;;;;;;4976328;28;20047;-62
2023/09/19 03:00:37;;;;;;;1.70;1.00;;;18.30;88.50;;;;;;4974999;28;20418;-63
2023/09/19 03:03:03;;;;;;;1.15;0.90;;;18.30;88.40;;;;;;4975002;28;20038;-62
2023/09/19 03:05:31;;;;;;;2.28;1.20;;;18.30;88.30;;;;;;4975771;28;20053;-61
2023/09/19 03:08:00;;;;;;;4.20;1.20;;;18.30;88.30;;;;;;4976365;28;20039;-61
2023/09/19 03:10:26;;;;;;;1.33;1.10;;;18.30;88.20;;;;;;4972040;28;20039;-62
2023/09/19 03:12:52;;;;;;;1.48;1.08;;;18.30;88.10;;;;;;4971994;28;20038;-62
2023/09/19 03:15:18;;;;;;;2.88;1.05;;;18.30;88.00;;;;;;4972949;28;20054;-60
2023/09/19 03:17:44;;;;;;;3.15;0.98;;;18.30;88.00;;;;;;4969644;28;20038;-62
2023/09/19 03:20:12;;;;;;;2.65;1.00;;;18.30;88.00;;;;;;4973120;28;20078;-62
2023/09/19 03:22:41;;;;;;;1.10;1.00;;;18.30;87.90;;;;;;4971943;28;20038;-62
2023/09/19 03:25:07;;;;;;;0.70;0.70;;;18.30;87.70;;;;;;4974258;28;20416;-62
2023/09/19 03:27:36;;;;;;;2.65;1.00;;;18.30;87.60;;;;;;4967148;28;20598;-62
2023/09/19 03:30:07;;;;;;;1.60;0.90;;;18.30;87.60;;;;;;4969178;28;20047;-61
2023/09/19 03:32:32;;;;;;;2.17;1.00;;;18.30;87.60;;;;;;4966020;28;20030;-62
2023/09/19 03:34:58;;;;;;;1.95;0.80;;;18.30;87.50;;;;;;4971079;28;20505;-61
2023/09/19 03:37:24;;;;;;;1.50;1.10;;;18.30;87.50;;;;;;4972519;28;20603;-61
2023/09/19 03:39:50;;;;;;;0.85;0.82;;;18.30;87.40;;;;;;4967841;28;20375;-62
2023/09/19 03:42:15;;;;;;;1.95;0.80;;;18.30;87.40;;;;;;4966976;28;20434;-62
2023/09/19 03:44:41;;;;;;;1.15;0.85;;;18.30;87.40;;;;;;4964161;28;20050;-62
2023/09/19 03:47:06;;;;;;;1.42;0.90;;;18.30;87.30;;;;;;4970479;28;20376;-62
2023/09/19 03:49:33;;;;;;;1.55;0.80;;;18.30;87.20;;;;;;4974448;28;20110;-62
2023/09/19 03:51:59;;;;;;;1.60;1.10;;;18.30;87.20;;;;;;4969111;28;20049;-63
2023/09/19 03:54:25;;;;;;;1.50;0.80;;;18.30;87.10;;;;;;4963085;28;20038;-61
2023/09/19 03:56:50;;;;;;;2.15;0.88;;;18.30;87.90;;;;;;4963762;28;20042;-62
2023/09/19 03:59:16;;;;;;;0.90;0.90;;;18.30;87.00;;;;;;4966905;28;20406;-62
2023/09/19 04:01:42;;;;;;;1.05;0.73;;;18.30;87.00;;;;;;4964634;28;20038;-62
2023/09/19 04:04:08;;;;;;;1.98;0.75;;;18.30;86.80;;;;;;4964719;28;20109;-62
2023/09/19 04:06:37;;;;;;;1.27;0.90;;;18.30;86.70;;;;;;4965937;28;20491;-62
2023/09/19 04:09:03;;;;;;;1.48;1.00;;;18.40;87.50;;;;;;4967148;28;20031;-62
2023/09/19 04:11:30;;;;;;;0.75;0.65;;;18.30;86.60;;;;;;4973072;28;20042;-62
2023/09/19 04:13:56;;;;;;;1.98;0.90;;;18.30;86.50;;;;;;4973364;28;20566;-62
2023/09/19 04:16:21;;;;;;;1.60;0.80;;;18.30;86.40;;;;;;4977496;28;20037;-62
2023/09/19 04:18:47;;;;;;;0.68;0.63;;;18.30;86.40;;;;;;4967725;28;20042;-62
2023/09/19 04:21:13;;;;;;;2.03;0.60;;;18.30;86.20;;;;;;4972400;28;20572;-62
2023/09/19 04:23:38;;;;;;;1.15;0.70;;;18.30;86.10;;;;;;4972350;28;20066;-62
2023/09/19 04:26:07;;;;;;;1.58;0.77;;;18.30;85.90;;;;;;4966427;28;20683;-62
2023/09/19 04:28:34;;;;;;;2.40;1.00;;;18.30;85.80;;;;;;4967746;28;20050;-61
2023/09/19 04:31:00;;;;;;;1.05;0.80;;;18.30;86.60;;;;;;4955313;28;20071;-62
2023/09/19 04:33:29;;;;;;;1.95;0.70;;;18.30;85.60;;;;;;4955786;28;20037;-62
2023/09/19 04:35:55;;;;;;;0.82;0.70;;;18.30;85.40;;;;;;4975664;28;20042;-61
2023/09/19 04:38:21;;;;;;;2.70;0.80;;;18.30;85.40;;;;;;4975667;28;20089;-62
2023/09/19 04:40:47;;;;;;;0.95;0.70;;;18.30;85.50;;;;;;4974493;28;20470;-61
2023/09/19 04:43:13;;;;;;;2.20;0.90;;;18.30;85.40;;;;;;4976648;28;20049;-61
2023/09/19 04:45:40;;;;;;;2.60;0.80;;;18.30;85.40;;;;;;4974585;28;20039;-62
2023/09/19 04:48:08;;;;;;;1.10;0.80;;;18.30;85.30;;;;;;4975982;28;20053;-62
2023/09/19 04:50:34;;;;;;;1.50;0.80;;;18.30;85.20;;;;;;4976376;28;20035;-62
2023/09/19 04:53:00;;;;;;;2.20;0.85;;;18.30;85.10;;;;;;4975685;28;20049;-62
2023/09/19 04:55:27;;;;;;;2.00;0.90;;;18.30;85.10;;;;;;4975052;28;20050;-62
2023/09/19 04:57:53;;;;;;;1.63;0.85;;;18.30;85.20;;;;;;4976189;28;20342;-62
2023/09/19 05:00:24;;;;;;;1.13;0.60;;;18.30;85.20;;;;;;4976217;28;20073;-62
2023/09/19 05:02:53;;;;;;;0.80;0.70;;;18.20;85.10;;;;;;4955408;28;20130;-62
2023/09/19 05:05:19;;;;;;;1.17;0.60;;;18.30;85.30;;;;;;4963035;28;20039;-61
2023/09/19 05:07:46;;;;;;;1.98;0.80;;;18.20;85.20;;;;;;4975633;28;20035;-62
2023/09/19 05:10:12;;;;;;;1.23;0.80;;;18.20;85.50;;;;;;4975459;28;20035;-62
2023/09/19 05:12:38;;;;;;;1.05;0.70;;;18.30;85.20;;;;;;4974488;28;20489;-61
2023/09/19 05:15:07;;;;;;;1.65;0.80;;;18.20;85.20;;;;;;4972508;28;20520;-62
2023/09/19 05:17:35;;;;;;;1.05;0.65;;;18.20;85.20;;;;;;4973109;28;20038;-62
2023/09/19 05:20:15;;;;;;;4.28;0.90;;;18.30;85.20;;;;;;4975067;28;20043;-62
2023/09/19 05:22:42;;;;;;;1.45;0.60;;;18.20;85.20;;;;;;4973349;28;20027;-61
2023/09/19 05:25:09;;;;;;;2.00;0.70;;;18.20;85.10;;;;;;4977026;28;20066;-62
2023/09/19 05:27:35;;;;;;;1.48;0.82;;;18.30;85.20;;;;;;4973793;28;20077;-61
2023/09/19 05:30:00;;;;;;;2.05;0.68;;;18.20;85.00;;;;;;4975878;28;20057;-62
2023/09/19 05:32:26;;;;;;;1.83;0.88;;;18.20;85.00;;;;;;4971390;28;20089;-60
2023/09/19 05:34:53;;;;;;;1.58;0.70;;;18.30;85.10;;;;;;4976008;28;20054;-62
2023/09/19 05:37:19;;;;;;;0.95;0.65;;;18.30;85.20;;;;;;4975005;28;20065;-62
2023/09/19 05:39:45;;;;;;;1.75;0.70;;;18.20;85.20;;;;;;4977151;28;20233;-62
2023/09/19 05:42:10;;;;;;;1.15;0.70;;;18.20;85.30;;;;;;4975742;28;20129;-62
2023/09/19 05:44:36;;;;;;;2.65;0.80;;;18.30;85.50;;;;;;4975812;28;20035;-62
2023/09/19 05:47:03;;;;;;;0.40;0.40;;;18.20;85.50;;;;;;4975304;28;20038;-62
2023/09/19 05:49:28;;;;;;;3.08;0.65;;;18.20;85.60;;;;;;4975847;28;20149;-61
2023/09/19 05:51:56;;;;;;;1.52;0.60;;;18.20;85.70;;;;;;4974408;28;20122;-62
2023/09/19 05:54:22;;;;;;;1.65;0.70;;;18.20;85.70;;;;;;4974212;28;20042;-61
2023/09/19 05:56:48;;;;;;;0.63;0.60;;;18.20;85.50;;;;;;4977063;28;20097;-62
2023/09/19 05:59:15;;;;;;;1.48;0.73;;;18.20;85.60;;;;;;4977467;28;20035;-62
2023/09/19 06:01:42;;;;;;;2.60;0.75;;;18.20;85.60;;;;;;4973538;28;20050;-62
2023/09/19 06:04:08;;;;;;;1.08;0.60;;;18.20;85.50;;;;;;4976620;28;20026;-62
2023/09/19 06:06:38;;;;;;;1.52;0.73;;;18.20;85.60;;;;;;4976993;28;20037;-62
2023/09/19 06:09:08;;;;;;;1.00;0.77;;;18.20;85.60;;;;;;4978582;28;20030;-61
2023/09/19 06:11:35;;;;;;;2.92;0.98;;;18.20;85.60;;;;;;4976390;28;20482;-62
2023/09/19 06:14:04;;;;;;;1.35;0.70;;;18.20;85.70;;;;;;4977458;28;20027;-61
2023/09/19 06:16:32;;;;;;;0.95;0.70;;;18.20;85.80;;;;;;4976931;28;20031;-61
2023/09/19 06:18:59;;;;;;;1.20;0.82;;;18.20;85.90;;;;;;4976683;28;20037;-62
2023/09/19 06:21:26;;;;;;;1.48;0.90;;;18.20;86.00;;;;;;4976711;28;20097;-62
2023/09/19 06:23:53;;;;;;;1.08;0.80;;;18.20;86.30;;;;;;4975566;28;20030;-62
2023/09/19 06:26:18;;;;;;;3.47;0.98;;;18.20;86.40;;;;;;4977631;28;20054;-62
2023/09/19 06:28:44;;;;;;;1.08;0.75;;;18.20;86.60;;;;;;4976924;28;20465;-62
2023/09/19 06:31:10;;;;;;;1.73;0.90;;;18.20;86.70;;;;;;4976967;28;20035;-61
2023/09/19 06:33:39;;;;;;;1.02;0.70;;;18.30;86.90;;;;;;4976697;28;20541;-62
2023/09/19 06:36:05;;;;;;;1.60;0.93;;;18.20;86.90;;;;;;4975901;28;20117;-62
2023/09/19 06:38:32;;;;;;;1.00;0.70;;;18.30;86.90;;;;;;4976677;28;20446;-62
2023/09/19 06:40:58;;;;;;;1.27;0.80;;;18.40;87.00;;;;;;4976480;28;20034;-62
2023/09/19 06:43:27;;;;;;;1.23;0.68;;;18.40;87.00;;;;;;4977443;28;20411;-62
2023/09/19 06:45:54;;;;;;;1.02;0.80;;;18.40;87.00;;;;;;4977319;28;20035;-62
2023/09/19 06:48:21;;;;;;;1.80;0.80;;;18.50;86.90;;;;;;4977141;28;20125;-62
2023/09/19 06:50:47;;;;;;;1.13;0.80;;;18.50;86.60;;;;;;4977170;28;20125;-62
2023/09/19 06:53:13;;;;;;;0.77;0.50;;;18.60;86.50;;;;;;4977023;28;20046;-62
2023/09/19 06:55:43;;;;;;;1.15;0.73;;;18.60;86.40;;;;;;4977695;28;20035;-62
2023/09/19 06:58:10;;;;;;;1.27;0.60;;;18.70;86.00;;;;;;4977014;28;20610;-62
2023/09/19 07:00:37;;;;;;;1.00;0.70;;;18.70;86.00;;;;;;4976791;28;20126;-61
2023/09/19 07:03:04;;;;;;;1.92;0.70;;;18.70;86.00;;;;;;4975694;28;20122;-62
2023/09/19 07:05:31;;;;;;;2.80;0.85;;;18.70;86.70;;;;;;4975518;28;20035;-62
2023/09/19 07:07:58;;;;;;;2.53;0.63;;;18.70;85.80;;;;;;4976501;28;20049;-62
2023/09/19 07:10:25;;;;;;;1.13;0.75;;;18.80;85.80;;;;;;4975744;28;20043;-61
2023/09/19 07:13:02;;;;;;;1.33;0.60;;;18.80;85.90;;;;;;4975209;28;20041;-62
2023/09/19 07:15:30;;;;;;;0.82;0.68;;;18.90;85.60;;;;;;4976500;28;20038;-62
2023/09/19 07:17:56;;;;;;;0.40;0.40;;;18.90;85.90;;;;;;4977328;28;20084;-62
2023/09/19 07:20:26;;;;;;;1.67;0.90;;;19.00;85.80;;;;;;4976920;28;20038;-62
2023/09/19 07:22:52;;;;;;;1.60;0.70;;;19.10;85.70;;;;;;4974714;28;20035;-62
2023/09/19 07:25:21;;;;;;;1.13;0.52;;;19.10;85.50;;;;;;4976246;28;20038;-62
2023/09/19 07:27:47;;;;;;;1.52;0.70;;;19.20;85.30;;;;;;4976868;28;20045;-62
2023/09/19 07:30:13;;;;;;;0.75;0.65;;;19.20;85.20;;;;;;4974745;28;20418;-62
2023/09/19 07:32:40;;;;;;;1.23;0.50;;;19.30;85.00;;;;;;4971844;28;20039;-62
2023/09/19 07:35:06;;;;;;;1.60;0.70;;;19.30;84.60;;;;;;4972875;28;20347;-62
2023/09/19 07:37:33;;;;;;;0.77;0.70;;;19.40;84.30;;;;;;4974072;28;20707;-61
2023/09/19 07:40:11;;;;;;;1.05;0.57;;;19.40;83.90;;;;;;4976370;28;20494;-61
2023/09/19 07:42:40;;;;;;;1.25;0.60;;;19.50;83.80;;;;;;4975263;28;20122;-62
2023/09/19 07:45:07;;;;;;;2.50;0.75;;;19.50;83.80;;;;;;4976449;28;20042;-62
2023/09/19 07:47:33;;;;;;;0.75;0.65;;;19.50;83.60;;;;;;4980236;28;20384;-62
2023/09/19 07:50:01;;;;;;;1.10;0.70;;;19.60;83.40;;;;;;4980617;28;20174;-62
2023/09/19 07:52:27;;;;;;;2.22;0.90;;;19.60;83.40;;;;;;4980630;28;20054;-62
2023/09/19 07:54:54;;;;;;;1.88;0.60;;;19.70;82.70;;;;;;4980357;28;20041;-62
2023/09/19 07:57:19;;;;;;;2.30;0.90;;;19.70;82.70;;;;;;4980742;28;20038;-62
2023/09/19 07:59:45;;;;;;;1.52;0.73;;;19.70;82.50;;;;;;4980563;28;20407;-62
2023/09/19 08:02:15;;;;;;;1.30;0.60;;;19.70;82.10;;;;;;4978030;28;20054;-62
2023/09/19 08:04:48;;;;;;;1.05;0.70;;;19.70;82.00;;;;;;4980768;28;20507;-62
2023/09/19 08:07:14;;;;;;;1.60;0.70;;;19.80;82.80;;;;;;4981222;28;20506;-62
2023/09/19 08:09:41;;;;;;;1.58;0.80;;;19.80;81.70;;;;;;4981807;28;20035;-62
2023/09/19 08:12:10;;;;;;;4.38;0.88;;;19.80;81.70;;;;;;4978624;28;20085;-62
2023/09/19 08:14:37;;;;;;;1.77;0.60;;;19.80;81.60;;;;;;4980663;28;20042;-63
2023/09/19 08:17:02;;;;;;;2.08;0.60;;;19.80;81.50;;;;;;4980777;28;20026;-62
2023/09/19 08:19:29;;;;;;;3.13;0.63;;;19.90;81.40;;;;;;4981640;28;20094;-62
2023/09/19 08:22:01;;;;;;;1.10;0.75;;;19.90;81.30;;;;;;4981523;28;20027;-62
2023/09/19 08:24:28;;;;;;;0.88;0.70;;;20.00;81.00;;;;;;4980534;28;20034;-63
2023/09/19 08:26:55;;;;;;;1.30;0.75;;;20.00;80.60;;;;;;4982171;28;20037;-62
2023/09/19 08:29:27;;;;;;;1.48;0.70;;;20.00;80.30;;;;;;4981704;28;20113;-61
2023/09/19 08:31:56;;;;;;;1.20;0.65;;;20.00;80.00;;;;;;4981133;28;20575;-62
2023/09/19 08:34:25;;;;;;;0.80;0.70;;;20.10;80.00;;;;;;4978341;28;20137;-62
2023/09/19 08:36:56;;;;;;;2.53;0.73;;;20.10;79.70;;;;;;4965282;28;20170;-63
2023/09/19 08:39:22;;;;;;;1.35;0.73;;;20.10;80.00;;;;;;4980659;28;21327;-63
2023/09/19 08:41:48;;;;;;;2.45;0.55;;;20.10;79.80;;;;;;4981577;28;20136;-63
2023/09/19 08:44:14;;;;;;;1.38;0.90;;;20.10;79.70;;;;;;4980457;28;20133;-62
2023/09/19 08:46:41;;;;;;;1.35;0.90;;;20.10;79.70;;;;;;4978190;28;20058;-62
2023/09/19 08:49:36;;;;;;;1.42;0.82;;;20.10;79.60;;;;;;4978186;28;20034;-62
2023/09/19 08:52:23;;;;;;;0.80;0.80;;;20.10;78.60;;;;;;4975965;28;20475;-62
2023/09/19 08:54:53;;;;;;;2.25;0.50;;;20.10;78.30;;;;;;4977873;28;20045;-62
2023/09/19 08:57:22;;;;;;;0.85;0.70;;;20.20;79.40;;;;;;4980028;28;20049;-62
2023/09/19 08:59:48;;;;;;;0.70;0.70;;;20.20;79.90;;;;;;4977218;28;20041;-62
2023/09/19 09:02:15;;;;;;;0.80;0.80;;;20.30;80.10;;;;;;4978491;28;20105;-62
2023/09/19 09:04:42;;;;;;;1.23;0.70;;;20.30;80.00;;;;;;4974605;28;20049;-62
2023/09/19 09:07:12;;;;;;;1.77;0.60;;;20.40;79.80;;;;;;4977782;28;20106;-62
2023/09/19 09:09:42;;;;;;;1.52;0.95;;;20.50;80.00;;;;;;4978036;28;20034;-62
2023/09/19 09:12:13;;;;;;;1.40;0.60;;;20.50;78.20;;;;;;4977872;28;20074;-62
2023/09/19 09:14:39;;;;;;;1.70;0.90;;;20.60;78.50;;;;;;4978494;28;20035;-62
2023/09/19 09:17:05;;;;;;;1.95;0.70;;;20.60;78.00;;;;;;4980533;28;20460;-62
2023/09/19 09:19:31;;;;;;;0.95;0.70;;;20.70;77.80;;;;;;4980027;28;20063;-63
2023/09/19 09:22:10;;;;;;;0.98;0.70;;;20.70;76.50;;;;;;4980241;28;20429;-62
2023/09/19 09:24:39;;;;;;;0.50;0.50;;;20.70;75.40;;;;;;4977587;28;21122;-62
2023/09/19 09:27:08;;;;;;;0.80;0.63;;;20.70;75.90;;;;;;4979752;28;20030;-62
2023/09/19 09:29:49;;;;;;;3.08;0.70;;;20.70;75.80;;;;;;4979820;28;20038;-62
2023/09/19 09:32:36;;;;;;;1.10;0.63;;;20.70;75.60;;;;;;4980384;28;20038;-62
2023/09/19 09:35:10;;;;;;;1.15;0.60;;;20.80;75.60;;;;;;4953390;28;20039;-62
2023/09/19 09:37:38;;;;;;;1.70;0.80;;;20.80;75.40;;;;;;4970494;28;20058;-62
2023/09/19 09:42:39;;;;;;;2.40;0.40;;;20.80;74.90;;;;;;4977298;28;20035;-62
2023/09/19 09:47:59;;;;;;;1.92;0.40;;;20.70;71.90;;;;;;4959794;28;20078;-62
2023/09/19 09:50:39;;;;;;;1.02;0.55;;;20.60;73.90;;;;;;4976334;28;20038;-62
2023/09/19 09:53:31;;;;;;;3.13;0.52;;;20.40;73.90;;;;;;4979632;28;20073;-62
2023/09/19 09:56:00;;;;;;;2.15;0.50;;;20.30;73.60;;;;;;4979707;28;20046;-62
2023/09/19 09:58:29;;;;;;;0.70;0.47;;;20.10;74.70;;;;;;4978350;28;20042;-63
2023/09/19 10:00:59;;;;;;;1.23;0.30;;;20.00;75.30;;;;;;4979574;28;20097;-62
2023/09/19 10:03:39;;;;;;;0.73;0.40;;;19.90;75.90;;;;;;4978841;28;20047;-62
2023/09/19 10:06:26;;;;;;;1.20;0.40;;;19.80;76.60;;;;;;4979300;28;20600;-62
2023/09/19 10:09:05;;;;;;;1.83;0.60;;;19.70;77.40;;;;;;4963864;28;20030;-63
2023/09/19 10:11:31;;;;;;;1.58;0.63;;;19.70;77.80;;;;;;4976733;28;20089;-62
2023/09/19 10:14:01;;;;;;;0.50;0.47;;;19.70;78.00;;;;;;4979185;28;20447;-63
2023/09/19 10:16:31;;;;;;;1.90;0.60;;;19.70;78.90;;;;;;4978870;28;20089;-62
2023/09/19 10:19:02;;;;;;;0.60;0.50;;;19.80;79.40;;;;;;4978785;28;20402;-62
2023/09/19 10:21:30;;;;;;;0.50;0.50;;;19.80;79.80;;;;;;4978948;28;20651;-62
2023/09/19 10:23:59;;;;;;;2.25;0.55;;;19.80;79.10;;;;;;4979313;28;20081;-62
2023/09/19 10:26:30;;;;;;;1.27;0.65;;;19.90;79.00;;;;;;4978193;28;20376;-63
2023/09/19 10:28:57;;;;;;;1.17;0.47;;;20.00;78.60;;;;;;4978948;28;20089;-62
2023/09/19 10:31:25;;;;;;;0.85;0.50;;;20.10;79.10;;;;;;4978857;28;20038;-63
2023/09/19 10:33:53;;;;;;;1.13;0.60;;;20.20;79.20;;;;;;4978337;28;20030;-62
2023/09/19 10:36:20;;;;;;;1.65;0.75;;;20.20;78.00;;;;;;4978016;28;20065;-62
2023/09/19 10:38:48;;;;;;;1.92;0.60;;;20.30;77.90;;;;;;4978502;28;20034;-62
2023/09/19 10:41:16;;;;;;;1.05;0.70;;;20.40;77.90;;;;;;4978354;28;20038;-61
2023/09/19 10:43:46;;;;;;;1.20;0.80;;;20.40;77.70;;;;;;4978129;28;20101;-62
2023/09/19 10:46:12;;;;;;;0.82;0.50;;;20.50;78.00;;;;;;4977272;28;20511;-62
2023/09/19 10:48:40;;;;;;;1.52;0.60;;;20.60;78.00;;;;;;4977032;28;20031;-62
2023/09/19 10:51:16;;;;;;;0.60;0.57;;;20.60;77.50;;;;;;4977793;28;20054;-62
2023/09/19 10:53:48;;;;;;;1.08;0.75;;;20.70;76.50;;;;;;4978054;28;20568;-62
2023/09/19 10:56:36;;;;;;;0.75;0.70;;;20.70;76.80;;;;;;4977647;28;20511;-62
2023/09/19 10:59:14;;;;;;;0.90;0.70;;;20.80;75.90;;;;;;4952344;28;20039;-62
2023/09/19 11:01:53;;;;;;;0.60;0.50;;;20.90;75.40;;;;;;4967917;28;20031;-62
2023/09/19 11:04:35;;;;;;;1.48;0.80;;;20.90;75.60;;;;;;4957646;28;20043;-62
2023/09/19 11:07:12;;;;;;;0.77;0.60;;;21.00;74.80;;;;;;4958935;28;20031;-62
2023/09/19 11:10:01;;;;;;;1.23;1.00;;;21.00;74.70;;;;;;4967018;28;20399;-63
2023/09/19 11:13:03;;;;;;;0.90;0.80;;;21.10;75.30;;;;;;4974916;28;20049;-62
2023/09/19 11:15:58;;;;;;;3.50;0.80;;;21.20;75.20;;;;;;4977565;28;20089;-63
2023/09/19 11:18:43;;;;;;;1.55;0.82;;;21.20;73.30;;;;;;4977792;28;20361;-62
2023/09/19 11:21:29;;;;;;;0.80;0.80;;;21.30;73.00;;;;;;4977670;28;20117;-62
2023/09/19 11:24:10;;;;;;;2.45;0.90;;;21.40;72.80;;;;;;4977332;28;20037;-62
2023/09/19 11:26:47;;;;;;;1.58;0.88;;;21.50;71.70;;;;;;4977710;28;20228;-62
2023/09/19 11:29:25;;;;;;;2.17;1.00;;;21.50;70.10;;;;;;4978068;28;20031;-62
2023/09/19 11:31:51;;;;;;;1.08;0.98;;;21.60;71.10;;;;;;4978143;28;20069;-62
2023/09/19 11:34:41;;;;;;;1.05;0.77;;;21.70;70.70;;;;;;4977395;28;20070;-62
2023/09/19 11:37:11;;;;;;;1.33;0.80;;;21.80;69.80;;;;;;4976979;28;20034;-62
2023/09/19 11:39:38;;;;;;;1.75;0.70;;;21.90;70.60;;;;;;4977735;28;20068;-62
2023/09/19 11:42:45;;;;;;;1.67;0.50;;;22.00;70.70;;;;;;4977456;28;20030;-62
2023/09/19 11:45:57;;;;;;;1.00;0.68;;;22.20;69.20;;;;;;4971714;28;20035;-62
2023/09/19 11:48:27;;;;;;;1.95;0.60;;;22.30;68.90;;;;;;4957949;28;20054;-62
2023/09/19 11:50:53;;;;;;;0.90;0.63;;;22.40;69.30;;;;;;4977621;28;20041;-62
2023/09/19 11:53:19;;;;;;;0.57;0.57;;;22.50;68.60;;;;;;4977359;28;20062;-62
2023/09/19 11:55:45;;;;;;;2.88;0.60;;;22.60;68.00;;;;;;4977916;28;20038;-62
2023/09/19 11:58:14;;;;;;;0.60;0.55;;;22.70;67.30;;;;;;4977755;28;20047;-61
2023/09/19 12:00:43;;;;;;;1.65;0.80;;;22.70;67.30;;;;;;4974561;28;20121;-62
2023/09/19 12:03:11;;;;;;;2.13;1.05;;;22.80;67.10;;;;;;4958273;28;20119;-63
2023/09/19 12:05:37;;;;;;;0.43;0.43;;;22.80;67.20;;;;;;4967272;28;20133;-62
2023/09/19 12:08:07;;;;;;;1.83;0.50;;;22.90;66.90;;;;;;4978440;28;20133;-62
2023/09/19 12:10:33;;;;;;;0.85;0.60;;;23.00;66.70;;;;;;4974180;28;20035;-62
2023/09/19 12:12:59;;;;;;;1.58;0.70;;;23.00;66.60;;;;;;4976159;28;20089;-62
2023/09/19 12:15:33;;;;;;;0.50;0.50;;;23.10;67.20;;;;;;4972662;28;20054;-62
2023/09/19 12:17:59;;;;;;;0.95;0.60;;;23.10;66.00;;;;;;4975696;28;20526;-62
2023/09/19 12:20:25;;;;;;;1.48;0.60;;;23.10;65.50;;;;;;4973028;28;20061;-62
2023/09/19 12:22:51;;;;;;;0.47;0.40;;;23.20;65.80;;;;;;4978020;28;20431;-62
2023/09/19 12:25:18;;;;;;;0.95;0.50;;;23.20;65.50;;;;;;4979506;28;20545;-62
2023/09/19 12:27:43;;;;;;;2.15;0.60;;;23.30;64.50;;;;;;4981531;28;20344;-61
2023/09/19 12:30:13;;;;;;;0.73;0.50;;;23.40;64.20;;;;;;4981369;28;20049;-62
2023/09/19 12:32:40;;;;;;;1.05;0.60;;;23.40;64.50;;;;;;4979688;28;20038;-62
2023/09/19 12:35:12;;;;;;;0.65;0.50;;;23.40;63.80;;;;;;4980632;28;20038;-62
2023/09/19 12:37:48;;;;;;;0.80;0.50;;;23.40;63.30;;;;;;4980324;28;20034;-62
2023/09/19 12:40:17;;;;;;;1.95;0.77;;;23.40;62.00;;;;;;4980966;28;20062;-63
2023/09/19 12:42:45;;;;;;;1.40;0.52;;;23.30;63.40;;;;;;4979630;28;20060;-63
2023/09/19 12:45:13;;;;;;;0.57;0.55;;;23.30;63.60;;;;;;4980750;28;20141;-62
2023/09/19 12:47:40;;;;;;;2.88;0.60;;;23.30;63.60;;;;;;4978645;28;20065;-62
2023/09/19 12:50:13;;;;;;;1.00;0.60;;;23.30;63.60;;;;;;4978945;28;20153;-62
2023/09/19 12:52:40;;;;;;;1.25;0.40;;;23.30;63.40;;;;;;4980081;28;20051;-63
2023/09/19 12:55:07;;;;;;;1.33;0.55;;;23.30;64.00;;;;;;4977293;28;20133;-62
2023/09/19 12:57:34;;;;;;;2.70;0.50;;;23.30;63.00;;;;;;4979243;28;20108;-62
2023/09/19 13:00:10;;;;;;;1.30;0.70;;;23.40;63.30;;;;;;4978141;28;20041;-62
2023/09/19 13:02:36;;;;;;;1.08;0.60;;;23.30;62.60;;;;;;4980525;28;20046;-62
2023/09/19 13:05:04;;;;;;;3.58;0.60;;;23.30;62.60;;;;;;4979944;28;20035;-62
2023/09/19 13:07:43;;;;;;;2.10;0.63;;;23.30;62.70;;;;;;4979986;28;20035;-63